createdAt,value
2023-04-16T00:00:43.181Z,101427.31
2023-04-16T00:03:09.876Z,101426.09
2023-04-16T00:05:36.669Z,101424.66
2023-04-16T00:08:03.180Z,101420.59
2023-04-16T00:10:29.661Z,101424.09
2023-04-16T00:12:56.237Z,101425.13
2023-04-16T00:15:23.248Z,101423.28
2023-04-16T00:17:49.790Z,101427.38
2023-04-16T00:20:16.513Z,101431.25
2023-04-16T00:22:43.048Z,101418.44
2023-04-16T00:25:09.681Z,101422.50
2023-04-16T00:27:36.409Z,101416.00
2023-04-16T00:30:03.433Z,101425.38
2023-04-16T00:32:30.805Z,101430.06
2023-04-16T00:34:57.392Z,101424.78
2023-04-16T00:37:23.912Z,101424.38
2023-04-16T00:39:50.588Z,101431.31
2023-04-16T00:42:17.202Z,101429.47
2023-04-16T00:44:43.681Z,101431.72
2023-04-16T00:47:10.747Z,101426.63
2023-04-16T00:49:37.748Z,101431.13
2023-04-16T00:52:04.672Z,101432.53
2023-04-16T00:54:31.890Z,101419.50
2023-04-16T00:56:59.862Z,101420.31
2023-04-16T00:59:27.340Z,101421.34
2023-04-16T01:01:54.091Z,101418.47
2023-04-16T01:04:21.557Z,101410.75
2023-04-16T01:06:48.193Z,101412.59
2023-04-16T01:09:14.698Z,101411.78
2023-04-16T01:11:41.203Z,101410.16
2023-04-16T01:14:08.611Z,101418.09
2023-04-16T01:16:35.214Z,101417.69
2023-04-16T01:19:01.793Z,101411.59
2023-04-16T01:21:28.521Z,101416.88
2023-04-16T01:23:55.036Z,101415.22
2023-04-16T01:26:21.619Z,101410.97
2023-04-16T01:28:48.127Z,101417.06
2023-04-16T01:31:14.663Z,101420.13
2023-04-16T01:33:41.228Z,101411.59
2023-04-16T01:36:07.742Z,101412.78
2023-04-16T01:38:34.225Z,101413.81
2023-04-16T01:41:01.899Z,101411.19
2023-04-16T01:43:28.441Z,101411.41
2023-04-16T01:46:14.328Z,101411.41
2023-04-16T01:48:40.948Z,101403.63
2023-04-16T01:51:07.555Z,101409.97
2023-04-16T01:53:36.582Z,101407.31
2023-04-16T01:56:03.808Z,101411.97
2023-04-16T01:58:31.401Z,101403.84
2023-04-16T02:00:58.626Z,101408.34
2023-04-16T02:03:25.445Z,101405.88
2023-04-16T02:05:52.134Z,101400.59
2023-04-16T02:08:18.714Z,101413.63
2023-04-16T02:10:50.001Z,101404.88
2023-04-16T02:13:16.995Z,101397.75
2023-04-16T02:15:50.928Z,101395.53
2023-04-16T02:18:17.613Z,101398.16
2023-04-16T02:20:46.032Z,101394.50
2023-04-16T02:23:15.074Z,101387.59
2023-04-16T02:25:42.844Z,101390.41
2023-04-16T02:28:13.472Z,101393.28
2023-04-16T02:30:41.375Z,101392.25
2023-04-16T02:33:09.480Z,101388.19
2023-04-16T02:35:36.757Z,101383.09
2023-04-16T02:38:04.295Z,101386.75
2023-04-16T02:40:31.424Z,101381.47
2023-04-16T02:42:58.401Z,101377.00
2023-04-16T02:45:25.398Z,101385.13
2023-04-16T02:47:52.224Z,101378.22
2023-04-16T02:50:18.928Z,101376.16
2023-04-16T02:52:45.497Z,101376.16
2023-04-16T02:55:12.216Z,101371.28
2023-04-16T02:57:38.806Z,101369.44
2023-04-16T03:00:05.954Z,101364.59
2023-04-16T03:02:32.643Z,101366.81
2023-04-16T03:04:59.244Z,101363.16
2023-04-16T03:07:26.267Z,101368.03
2023-04-16T03:09:52.767Z,101358.88
2023-04-16T03:12:19.316Z,101357.88
2023-04-16T03:14:46.156Z,101358.47
2023-04-16T03:17:12.746Z,101355.00
2023-04-16T03:19:39.282Z,101366.22
2023-04-16T03:22:05.792Z,101358.06
2023-04-16T03:24:32.271Z,101357.25
2023-04-16T03:26:59.031Z,101355.41
2023-04-16T03:29:26.823Z,101356.03
2023-04-16T03:31:53.465Z,101359.28
2023-04-16T03:34:20.132Z,101357.66
2023-04-16T03:36:46.700Z,101361.91
2023-04-16T03:39:13.266Z,101357.66
2023-04-16T03:41:39.762Z,101356.03
2023-04-16T03:44:06.273Z,101355.00
2023-04-16T03:46:33.010Z,101352.38
2023-04-16T03:48:59.556Z,101351.34
2023-04-16T03:51:26.538Z,101346.03
2023-04-16T03:53:53.155Z,101342.38
2023-04-16T03:56:19.775Z,101352.16
2023-04-16T03:58:46.400Z,101345.03
2023-04-16T04:01:12.941Z,101347.66
2023-04-16T04:03:39.801Z,101341.78
2023-04-16T04:06:08.339Z,101339.94
2023-04-16T04:08:34.859Z,101334.44
2023-04-16T04:11:01.392Z,101340.16
2023-04-16T04:13:27.946Z,101338.34
2023-04-16T04:15:54.591Z,101333.03
2023-04-16T04:18:21.201Z,101339.13
2023-04-16T04:20:47.783Z,101335.47
2023-04-16T04:23:14.326Z,101339.72
2023-04-16T04:25:40.823Z,101339.13
2023-04-16T04:28:07.376Z,101339.13
2023-04-16T04:30:35.759Z,101341.56
2023-04-16T04:33:02.592Z,101341.56
2023-04-16T04:35:30.285Z,101342.38
2023-04-16T04:37:56.739Z,101338.72
2023-04-16T04:40:23.237Z,101339.53
2023-04-16T04:42:49.804Z,101337.91
2023-04-16T04:45:16.619Z,101342.19
2023-04-16T04:47:43.264Z,101334.25
2023-04-16T04:50:10.124Z,101338.72
2023-04-16T04:52:36.750Z,101339.72
2023-04-16T04:55:03.757Z,101339.13
2023-04-16T04:57:30.486Z,101339.13
2023-04-16T04:59:56.952Z,101341.56
2023-04-16T05:02:23.573Z,101338.91
2023-04-16T05:04:50.123Z,101345.03
2023-04-16T05:07:16.946Z,101342.59
2023-04-16T05:09:43.476Z,101353.19
2023-04-16T05:12:10.037Z,101347.66
2023-04-16T05:14:36.535Z,101346.03
2023-04-16T05:17:03.112Z,101344.03
2023-04-16T05:19:29.735Z,101354.16
2023-04-16T05:21:56.294Z,101350.53
2023-04-16T05:24:22.886Z,101346.22
2023-04-16T05:26:49.396Z,101346.22
2023-04-16T05:29:15.948Z,101350.53
2023-04-16T05:31:42.590Z,101354.97
2023-04-16T05:34:09.098Z,101351.34
2023-04-16T05:36:35.736Z,101352.97
2023-04-16T05:39:02.253Z,101355.38
2023-04-16T05:41:28.913Z,101359.69
2023-04-16T05:43:55.441Z,101366.59
2023-04-16T05:46:22.035Z,101372.69
2023-04-16T05:48:48.667Z,101369.25
2023-04-16T05:51:15.292Z,101373.31
2023-04-16T05:53:42.058Z,101376.75
2023-04-16T05:56:08.766Z,101374.94
2023-04-16T05:58:35.301Z,101375.75
2023-04-16T06:01:02.011Z,101377.56
2023-04-16T06:03:28.586Z,101372.88
2023-04-16T06:05:55.482Z,101383.28
2023-04-16T06:08:22.087Z,101378.56
2023-04-16T06:10:49.119Z,101379.38
2023-04-16T06:13:15.719Z,101387.13
2023-04-16T06:15:42.283Z,101382.66
2023-04-16T06:18:09.087Z,101384.88
2023-04-16T06:20:36.304Z,101388.34
2023-04-16T06:23:02.769Z,101396.88
2023-04-16T06:25:29.304Z,101393.00
2023-04-16T06:27:55.790Z,101393.81
2023-04-16T06:30:22.303Z,101391.56
2023-04-16T06:32:49.679Z,101393.81
2023-04-16T06:35:16.435Z,101389.13
2023-04-16T06:37:42.927Z,101389.50
2023-04-16T06:40:09.894Z,101397.03
2023-04-16T06:42:36.646Z,101395.59
2023-04-16T06:45:03.283Z,101401.31
2023-04-16T06:47:29.941Z,101405.75
2023-04-16T06:49:56.504Z,101406.38
2023-04-16T06:52:23.132Z,101412.66
2023-04-16T06:54:49.743Z,101417.13
2023-04-16T06:57:16.494Z,101417.31
2023-04-16T06:59:43.100Z,101420.97
2023-04-16T07:02:10.703Z,101427.28
2023-04-16T07:04:37.335Z,101424.81
2023-04-16T07:07:03.924Z,101427.66
2023-04-16T07:09:30.600Z,101432.09
2023-04-16T07:11:57.202Z,101419.88
2023-04-16T07:14:23.815Z,101421.88
2023-04-16T07:16:50.498Z,101423.88
2023-04-16T07:19:17.086Z,101421.63
2023-04-16T07:21:43.815Z,101427.09
2023-04-16T07:24:11.782Z,101428.91
2023-04-16T07:26:38.422Z,101426.44
2023-04-16T07:29:04.879Z,101425.56
2023-04-16T07:31:31.558Z,101426.56
2023-04-16T07:33:58.424Z,101434.69
2023-04-16T07:36:25.014Z,101438.34
2023-04-16T07:38:51.547Z,101432.97
2023-04-16T07:41:18.084Z,101433.75
2023-04-16T07:43:44.596Z,101445.31
2023-04-16T07:46:11.473Z,101447.72
2023-04-16T07:48:37.968Z,101450.53
2023-04-16T07:51:04.537Z,101439.84
2023-04-16T07:53:31.077Z,101441.44
2023-04-16T07:55:57.599Z,101442.19
2023-04-16T07:58:24.100Z,101444.56
2023-04-16T08:00:51.583Z,101445.94
2023-04-16T08:03:18.589Z,101445.44
2023-04-16T08:05:45.301Z,101450.72
2023-04-16T08:08:12.001Z,101452.28
2023-04-16T08:10:39.381Z,101447.91
2023-04-16T08:13:05.953Z,101453.38
2023-04-16T08:15:32.574Z,101461.28
2023-04-16T08:17:59.744Z,101456.56
2023-04-16T08:20:26.430Z,101448.50
2023-04-16T08:22:54.279Z,101446.47
2023-04-16T08:25:21.292Z,101452.97
2023-04-16T08:27:47.858Z,101461.88
2023-04-16T08:30:15.219Z,101462.00
2023-04-16T08:32:41.753Z,101457.69
2023-04-16T08:35:08.879Z,101455.16
2023-04-16T08:37:35.486Z,101456.13
2023-04-16T08:40:02.640Z,101460.53
2023-04-16T08:42:31.419Z,101459.84
2023-04-16T08:45:11.401Z,101466.72
2023-04-16T08:47:38.688Z,101464.78
2023-04-16T08:50:06.339Z,101468.38
2023-04-16T08:52:34.598Z,101465.88
2023-04-16T08:55:12.050Z,101466.00
2023-04-16T08:57:49.472Z,101475.78
2023-04-16T09:00:17.391Z,101470.56
2023-04-16T09:02:44.251Z,101464.31
2023-04-16T09:05:14.236Z,101460.16
2023-04-16T09:07:42.068Z,101457.69
2023-04-16T09:10:09.918Z,101465.81
2023-04-16T09:12:36.565Z,101469.63
2023-04-16T09:15:03.676Z,101471.41
2023-04-16T09:17:30.448Z,101471.28
2023-04-16T09:19:57.031Z,101476.97
2023-04-16T09:22:23.545Z,101472.34
2023-04-16T09:24:50.041Z,101466.94
2023-04-16T09:27:17.371Z,101468.44
2023-04-16T09:29:43.903Z,101478.97
2023-04-16T09:32:12.219Z,101475.16
2023-04-16T09:35:02.315Z,101484.91
2023-04-16T09:37:30.778Z,101479.69
2023-04-16T09:40:07.229Z,101495.31
2023-04-16T09:42:37.113Z,101496.03
2023-04-16T09:45:05.675Z,101486.63
2023-04-16T09:47:43.489Z,101487.91
2023-04-16T09:50:17.736Z,101489.16
2023-04-16T09:52:52.770Z,101501.72
2023-04-16T09:55:27.671Z,101486.97
2023-04-16T09:58:01.110Z,101489.84
2023-04-16T10:00:29.724Z,101492.16
2023-04-16T10:03:07.182Z,101492.59
2023-04-16T10:05:34.178Z,101487.34
2023-04-16T10:08:03.753Z,101483.75
2023-04-16T10:10:30.620Z,101488.09
2023-04-16T10:12:58.043Z,101483.69
2023-04-16T10:15:25.212Z,101476.31
2023-04-16T10:17:52.319Z,101482.59
2023-04-16T10:20:19.239Z,101473.84
2023-04-16T10:22:46.222Z,101487.88
2023-04-16T10:25:13.450Z,101488.22
2023-04-16T10:27:41.129Z,101492.03
2023-04-16T10:30:08.886Z,101497.13
2023-04-16T10:32:36.877Z,101497.69
2023-04-16T10:35:03.648Z,101502.22
2023-04-16T10:37:34.038Z,101500.13
2023-04-16T10:40:00.597Z,101502.22
2023-04-16T10:42:27.571Z,101501.97
2023-04-16T10:44:54.102Z,101496.16
2023-04-16T10:47:24.863Z,101501.50
2023-04-16T10:49:51.994Z,101503.94
2023-04-16T10:52:18.572Z,101503.72
2023-04-16T10:54:47.859Z,101502.66
2023-04-16T10:57:19.709Z,101500.31
2023-04-16T10:59:48.828Z,101507.00
2023-04-16T11:02:18.206Z,101511.06
2023-04-16T11:04:46.619Z,101511.44
2023-04-16T11:07:19.482Z,101510.38
2023-04-16T11:09:51.099Z,101505.63
2023-04-16T11:12:27.212Z,101506.44
2023-04-16T11:14:58.108Z,101504.56
2023-04-16T11:17:29.412Z,101521.16
2023-04-16T11:19:56.449Z,101515.78
2023-04-16T11:22:22.995Z,101514.78
2023-04-16T11:24:55.057Z,101509.16
2023-04-16T11:27:22.157Z,101509.50
2023-04-16T11:30:06.407Z,101507.97
2023-04-16T11:32:34.199Z,101506.69
2023-04-16T11:35:04.505Z,101505.16
2023-04-16T11:37:36.201Z,101518.25
2023-04-16T11:40:07.107Z,101512.44
2023-04-16T11:42:37.278Z,101518.56
2023-04-16T11:45:04.954Z,101517.28
2023-04-16T11:47:31.889Z,101524.25
2023-04-16T11:50:15.041Z,101517.28
2023-04-16T11:52:41.568Z,101516.25
2023-04-16T11:55:08.536Z,101513.31
2023-04-16T11:57:35.070Z,101511.44
2023-04-16T12:00:03.992Z,101508.53
2023-04-16T12:02:39.961Z,101499.13
2023-04-16T12:05:30.318Z,101499.13
2023-04-16T12:07:58.182Z,101497.53
2023-04-16T12:10:25.368Z,101497.53
2023-04-16T12:12:52.004Z,101496.72
2023-04-16T12:15:18.851Z,101495.66
2023-04-16T12:17:46.138Z,101486.81
2023-04-16T12:20:14.988Z,101494.59
2023-04-16T12:22:47.171Z,101488.44
2023-04-16T12:25:15.947Z,101486.81
2023-04-16T12:27:47.085Z,101486.81
2023-04-16T12:30:15.460Z,101493.25
2023-04-16T12:32:43.846Z,101491.84
2023-04-16T12:35:11.663Z,101491.03
2023-04-16T12:37:38.994Z,101498.25
2023-04-16T12:40:07.572Z,101501.59
2023-04-16T12:42:37.504Z,101506.41
2023-04-16T12:45:05.465Z,101508.63
2023-04-16T12:47:32.841Z,101510.69
2023-04-16T12:49:59.360Z,101513.19
2023-04-16T12:52:26.400Z,101525.00
2023-04-16T12:54:53.382Z,101512.72
2023-04-16T12:57:19.995Z,101513.22
2023-04-16T12:59:47.123Z,101509.34
2023-04-16T13:02:13.843Z,101503.69
2023-04-16T13:04:40.651Z,101499.84
2023-04-16T13:07:07.992Z,101495.97
2023-04-16T13:09:34.549Z,101504.06
2023-04-16T13:12:01.682Z,101499.88
2023-04-16T13:14:28.238Z,101506.38
2023-04-16T13:16:54.733Z,101504.25
2023-04-16T13:19:22.260Z,101499.25
2023-04-16T13:21:48.811Z,101504.91
2023-04-16T13:24:15.504Z,101506.09
2023-04-16T13:26:43.011Z,101505.63
2023-04-16T13:29:10.020Z,101511.03
2023-04-16T13:31:37.055Z,101507.88
2023-04-16T13:34:05.257Z,101518.91
2023-04-16T13:36:33.071Z,101514.13
2023-04-16T13:38:59.931Z,101509.09
2023-04-16T13:41:26.463Z,101511.78
2023-04-16T13:43:53.895Z,101505.38
2023-04-16T13:46:20.650Z,101509.91
2023-04-16T13:48:47.250Z,101508.03
2023-04-16T13:51:15.443Z,101505.38
2023-04-16T13:53:41.966Z,101505.38
2023-04-16T13:56:08.483Z,101495.72
2023-04-16T13:58:35.233Z,101501.88
2023-04-16T14:01:01.748Z,101505.63
2023-04-16T14:03:28.496Z,101504.00
2023-04-16T14:05:55.067Z,101502.16
2023-04-16T14:08:21.571Z,101496.78
2023-04-16T14:10:48.672Z,101486.09
2023-04-16T14:13:15.462Z,101496.78
2023-04-16T14:15:42.161Z,101493.66
2023-04-16T14:18:08.697Z,101497.19
2023-04-16T14:20:35.556Z,101490.84
2023-04-16T14:23:02.104Z,101489.91
2023-04-16T14:25:28.903Z,101478.47
2023-04-16T14:27:55.396Z,101483.88
2023-04-16T14:30:21.927Z,101486.88
2023-04-16T14:32:48.473Z,101479.44
2023-04-16T14:35:15.164Z,101479.19
2023-04-16T14:37:41.810Z,101476.50
2023-04-16T14:40:09.746Z,101478.16
2023-04-16T14:42:37.397Z,101469.06
2023-04-16T14:45:06.550Z,101470.13
2023-04-16T14:47:36.530Z,101478.16
2023-04-16T14:50:03.610Z,101471.16
2023-04-16T14:52:33.045Z,101469.00
2023-04-16T14:54:59.795Z,101473.75
2023-04-16T14:57:26.800Z,101474.81
2023-04-16T14:59:53.295Z,101470.50
2023-04-16T15:02:20.059Z,101474.25
2023-04-16T15:04:46.733Z,101477.72
2023-04-16T15:07:13.281Z,101468.09
2023-04-16T15:09:39.795Z,101473.44
2023-04-16T15:12:06.434Z,101477.41
2023-04-16T15:14:32.900Z,101480.06
2023-04-16T15:16:59.475Z,101484.38
2023-04-16T15:19:26.070Z,101475.56
2023-04-16T15:21:52.595Z,101481.94
2023-04-16T15:24:19.096Z,101488.69
2023-04-16T15:26:45.566Z,101477.41
2023-04-16T15:29:12.055Z,101472.88
2023-04-16T15:31:38.605Z,101477.41
2023-04-16T15:34:05.078Z,101480.34
2023-04-16T15:36:31.742Z,101476.84
2023-04-16T15:38:58.239Z,101477.09
2023-04-16T15:41:25.003Z,101487.81
2023-04-16T15:43:51.821Z,101486.41
2023-04-16T15:46:18.357Z,101484.81
2023-04-16T15:48:44.919Z,101475.41
2023-04-16T15:51:11.581Z,101472.16
2023-04-16T15:53:38.136Z,101474.81
2023-04-16T15:56:04.785Z,101467.31
2023-04-16T15:58:31.466Z,101469.97
2023-04-16T16:00:58.287Z,101474.53
2023-04-16T16:03:25.019Z,101470.78
2023-04-16T16:05:51.806Z,101462.78
2023-04-16T16:08:18.530Z,101474.00
2023-04-16T16:10:45.164Z,101465.75
2023-04-16T16:13:14.092Z,101466.56
2023-04-16T16:15:43.537Z,101471.13
2023-04-16T16:18:10.135Z,101472.72
2023-04-16T16:20:36.712Z,101469.47
2023-04-16T16:23:03.508Z,101471.91
2023-04-16T16:25:30.398Z,101471.91
2023-04-16T16:27:57.031Z,101465.75
2023-04-16T16:30:23.611Z,101466.31
2023-04-16T16:32:50.818Z,101464.44
2023-04-16T16:35:17.338Z,101459.94
2023-04-16T16:37:43.867Z,101461.56
2023-04-16T16:40:11.108Z,101463.97
2023-04-16T16:42:37.793Z,101458.63
2023-04-16T16:45:06.075Z,101454.88
2023-04-16T16:47:33.394Z,101458.41
2023-04-16T16:50:02.593Z,101457.31
2023-04-16T16:52:29.571Z,101456.53
2023-04-16T16:54:56.887Z,101455.72
2023-04-16T16:57:24.822Z,101457.31
2023-04-16T16:59:51.496Z,101465.09
2023-04-16T17:02:18.647Z,101455.47
2023-04-16T17:04:45.344Z,101456.28
2023-04-16T17:07:11.939Z,101454.41
2023-04-16T17:09:38.962Z,101447.19
2023-04-16T17:12:06.401Z,101455.53
2023-04-16T17:14:33.526Z,101453.13
2023-04-16T17:17:00.105Z,101445.91
2023-04-16T17:19:27.532Z,101457.13
2023-04-16T17:21:54.197Z,101451.78
2023-04-16T17:24:20.750Z,101442.72
2023-04-16T17:26:47.235Z,101450.75
2023-04-16T17:29:13.791Z,101454.25
2023-04-16T17:31:40.469Z,101459.31
2023-04-16T17:34:07.002Z,101459.09
2023-04-16T17:36:33.662Z,101452.09
2023-04-16T17:39:00.249Z,101452.38
2023-04-16T17:41:26.818Z,101460.38
2023-04-16T17:43:53.325Z,101464.94
2023-04-16T17:46:19.926Z,101461.69
2023-04-16T17:48:48.757Z,101460.06
2023-04-16T17:51:16.606Z,101468.91
2023-04-16T17:53:43.636Z,101463.22
2023-04-16T17:56:11.267Z,101465.09
2023-04-16T17:58:37.936Z,101453.84
2023-04-16T18:01:05.190Z,101455.94
2023-04-16T18:03:33.289Z,101456.44
2023-04-16T18:05:59.941Z,101456.69
2023-04-16T18:08:26.958Z,101460.66
2023-04-16T18:10:55.073Z,101461.44
2023-04-16T18:13:21.675Z,101455.81
2023-04-16T18:15:48.406Z,101466.50
2023-04-16T18:18:15.042Z,101462.69
2023-04-16T18:20:41.779Z,101464.78
2023-04-16T18:23:08.440Z,101467.72
2023-04-16T18:25:35.458Z,101477.03
2023-04-16T18:28:03.754Z,101469.47
2023-04-16T18:30:30.769Z,101475.31
2023-04-16T18:33:16.431Z,101473.16
2023-04-16T18:35:43.979Z,101473.63
2023-04-16T18:38:10.890Z,101481.31
2023-04-16T18:40:37.598Z,101472.38
2023-04-16T18:43:04.440Z,101480.88
2023-04-16T18:45:31.399Z,101481.59
2023-04-16T18:47:58.945Z,101484.41
2023-04-16T18:50:26.208Z,101487.00
2023-04-16T18:52:53.123Z,101485.06
2023-04-16T18:55:20.115Z,101482.53
2023-04-16T18:57:46.783Z,101487.78
2023-04-16T19:00:13.889Z,101481.53
2023-04-16T19:02:40.721Z,101476.91
2023-04-16T19:05:08.772Z,101484.03
2023-04-16T19:07:35.415Z,101479.38
2023-04-16T19:10:05.253Z,101485.91
2023-04-16T19:12:32.187Z,101489.78
2023-04-16T19:14:58.978Z,101497.69
2023-04-16T19:17:25.735Z,101486.66
2023-04-16T19:19:52.396Z,101493.53
2023-04-16T19:22:18.921Z,101489.69
2023-04-16T19:24:45.686Z,101492.75
2023-04-16T19:27:12.359Z,101489.72
2023-04-16T19:29:40.486Z,101500.06
2023-04-16T19:32:07.274Z,101495.78
2023-04-16T19:34:33.868Z,101499.16
2023-04-16T19:37:00.506Z,101491.03
2023-04-16T19:39:29.819Z,101499.72
2023-04-16T19:41:56.347Z,101494.75
2023-04-16T19:44:23.312Z,101495.78
2023-04-16T19:46:49.865Z,101500.75
2023-04-16T19:49:16.452Z,101504.72
2023-04-16T19:51:42.955Z,101509.72
2023-04-16T19:54:09.531Z,101507.50
2023-04-16T19:56:36.030Z,101510.63
2023-04-16T19:59:02.597Z,101508.41
2023-04-16T20:01:31.174Z,101507.03
2023-04-16T20:03:57.895Z,101510.97
2023-04-16T20:06:25.278Z,101511.41
2023-04-16T20:08:51.772Z,101519.41
2023-04-16T20:11:18.466Z,101515.59
2023-04-16T20:13:48.518Z,101517.91
2023-04-16T20:16:15.083Z,101519.31
2023-04-16T20:18:42.296Z,101517.44
2023-04-16T20:21:09.966Z,101516.53
2023-04-16T20:23:36.454Z,101511.22
2023-04-16T20:26:04.429Z,101513.50
2023-04-16T20:28:30.937Z,101520.00
2023-04-16T20:30:57.433Z,101506.78
2023-04-16T20:33:24.065Z,101506.78
2023-04-16T20:35:52.235Z,101518.50
2023-04-16T20:38:23.944Z,101517.31
2023-04-16T20:40:58.171Z,101513.06
2023-04-16T20:43:26.083Z,101516.16
2023-04-16T20:45:52.588Z,101513.75
2023-04-16T20:48:19.143Z,101513.16
2023-04-16T20:50:45.950Z,101519.28
2023-04-16T20:53:13.069Z,101517.06
2023-04-16T20:55:39.581Z,101522.06
2023-04-16T20:58:06.564Z,101520.22
2023-04-16T21:00:33.051Z,101514.09
2023-04-16T21:02:59.671Z,101513.13
2023-04-16T21:05:26.618Z,101514.97
2023-04-16T21:07:55.393Z,101512.31
2023-04-16T21:10:22.385Z,101515.22
2023-04-16T21:12:48.968Z,101508.25
2023-04-16T21:15:15.622Z,101511.41
2023-04-16T21:17:42.311Z,101511.59
2023-04-16T21:20:13.594Z,101515.75
2023-04-16T21:22:40.234Z,101508.47
2023-04-16T21:25:07.273Z,101508.47
2023-04-16T21:27:33.765Z,101514.34
2023-04-16T21:30:00.411Z,101515.03
2023-04-16T21:32:27.008Z,101510.19
2023-04-16T21:34:53.543Z,101515.72
2023-04-16T21:37:20.192Z,101520.69
2023-04-16T21:39:46.716Z,101523.22
2023-04-16T21:42:13.527Z,101522.44
2023-04-16T21:44:40.063Z,101526.72
2023-04-16T21:47:06.628Z,101522.88
2023-04-16T21:49:33.269Z,101529.25
2023-04-16T21:52:02.549Z,101522.50
2023-04-16T21:54:29.224Z,101525.78
2023-04-16T21:56:57.056Z,101523.13
2023-04-16T21:59:23.666Z,101526.78
2023-04-16T22:01:50.384Z,101519.03
2023-04-16T22:04:17.843Z,101525.41
2023-04-16T22:06:46.277Z,101526.66
2023-04-16T22:09:13.010Z,101527.47
2023-04-16T22:11:40.743Z,101529.13
2023-04-16T22:14:08.354Z,101530.94
2023-04-16T22:16:35.964Z,101533.22
2023-04-16T22:19:02.758Z,101535.88
2023-04-16T22:21:29.270Z,101536.09
2023-04-16T22:23:55.804Z,101535.06
2023-04-16T22:26:22.396Z,101531.03
2023-04-16T22:28:48.874Z,101532.88
2023-04-16T22:31:15.425Z,101528.81
2023-04-16T22:33:41.917Z,101537.59
2023-04-16T22:36:08.670Z,101530.66
2023-04-16T22:38:35.620Z,101527.63
2023-04-16T22:41:02.166Z,101541.75
2023-04-16T22:43:28.718Z,101539.31
2023-04-16T22:46:06.691Z,101534.44
2023-04-16T22:48:36.212Z,101536.28
2023-04-16T22:51:04.395Z,101525.84
2023-04-16T22:53:31.280Z,101527.94
2023-04-16T22:55:57.786Z,101527.13
2023-04-16T22:58:24.291Z,101529.78
2023-04-16T23:00:54.336Z,101535.31
2023-04-16T23:03:21.098Z,101539.03
2023-04-16T23:05:47.741Z,101539.25
2023-04-16T23:08:14.316Z,101542.72
2023-04-16T23:10:40.811Z,101541.56
2023-04-16T23:13:07.343Z,101534.97
2023-04-16T23:15:34.652Z,101537.03
2023-04-16T23:18:01.314Z,101546.88
2023-04-16T23:20:29.023Z,101542.59
2023-04-16T23:22:55.526Z,101542.81
2023-04-16T23:25:25.511Z,101544.66
2023-04-16T23:27:52.065Z,101548.94
2023-04-16T23:30:18.729Z,101546.50
2023-04-16T23:32:45.286Z,101548.13
2023-04-16T23:35:11.784Z,101546.50
2023-04-16T23:37:38.324Z,101552.28
2023-04-16T23:40:05.523Z,101553.06
2023-04-16T23:42:32.018Z,101548.56
2023-04-16T23:44:59.047Z,101548.00
2023-04-16T23:47:25.585Z,101548.81
2023-04-16T23:49:52.122Z,101549.84
2023-04-16T23:52:18.643Z,101542.66
2023-04-16T23:54:45.162Z,101550.84
2023-04-16T23:57:11.634Z,101547.19
2023-04-16T23:59:38.147Z,101544.72
